Latest Weather Observations for Portland Airport

IDV60801

Issued at 2:32 am EST Thursday 28 May 2020 (issued every 10 minutes, with the page automatically refreshed every 10 minutes)

About weather observations | Map of weather stations | Latest weather observations for VIC | Other Formats
Station Details ID: 090171 Name: CASHMORE AIRPORT Lat: -38.31 Lon: 141.47 Height: 80.9 m
Data from the previous 72 hours. | See also: Recent months at Portland Airport
Date/Time
EST
Temp
°C
App
Temp
°C
Dew
Point
°C
Rel
Hum
%
Delta-T
°C
Wind Press
QNH
hPa
Press
MSL
hPa
Rain since
9am
mm
Dir  Spd
km/h
Gust
km/h
Spd
kts
Gust
kts
28/02:30am 10.5 8.5 10.0 97 0.3 NNW 11 15 6 8 1019.0 1019.0 3.6
28/02:12am 10.4 8.0 9.9 97 0.3 NNW 13 15 7 8 1018.9 1018.9 3.6
28/02:00am 10.3 7.8 9.8 97 0.3 NNW 13 17 7 9 1018.8 1018.8 3.6
28/01:30am 9.7 7.8 9.1 96 0.3 N 9 13 5 7 1018.5 1018.5 3.6
28/01:00am 10.1 7.9 9.5 96 0.3 NNW 11 13 6 7 1018.6 1018.6 3.6
28/12:30am 9.7 7.8 8.9 95 0.4 N 9 13 5 7 1018.5 1018.5 3.6
28/12:00am 10.7 8.6 9.9 95 0.4 NNW 11 15 6 8 1018.6 1018.6 3.6
 
Date/Time
EST
Temp
°C
App
Temp
°C
Dew
Point
°C
Rel
Hum
%
Delta-T
°C
Wind Press
QNH
hPa
Press
MSL
hPa
Rain since
9am
mm
Dir  Spd
km/h
Gust
km/h
Spd
kts
Gust
kts
27/11:53pm 10.4 8.6 9.6 95 0.4 NNW 9 13 5 7 1018.6 1018.6 3.4
27/11:37pm 11.2 9.3 10.4 95 0.4 NW 11 15 6 8 1018.5 1018.5 3.4
27/11:30pm 11.1 9.1 10.3 95 0.4 NW 11 17 6 9 1018.5 1018.5 3.4
27/11:00pm 11.5 8.9 10.7 95 0.4 NW 15 19 8 10 1018.4 1018.4 3.4
27/10:58pm 11.5 8.9 10.7 95 0.4 NW 15 19 8 10 1018.4 1018.4 3.4
27/10:46pm 11.3 9.0 10.5 95 0.4 NW 13 19 7 10 1018.4 1018.4 3.4
27/10:30pm 11.4 9.9 10.6 95 0.4 NNW 9 15 5 8 1018.5 1018.5 3.4
27/10:20pm 11.5 9.7 10.7 95 0.4 NW 11 17 6 9 1018.5 1018.5 3.0
27/10:11pm 11.7 9.9 10.9 95 0.4 WNW 11 17 6 9 1018.5 1018.5 2.8
27/10:00pm 11.6 9.4 10.8 95 0.4 NW 13 17 7 9 1018.4 1018.4 2.4
27/09:30pm 11.7 9.1 10.8 94 0.5 WNW 15 20 8 11 1018.3 1018.3 2.4
27/09:00pm 11.7 9.1 10.8 94 0.5 WNW 15 26 8 14 1018.2 1018.2 2.0
27/08:30pm 11.8 9.6 10.7 93 0.6 WNW 13 17 7 9 1018.0 1018.0 2.0
27/08:22pm 11.8 9.3 10.9 94 0.5 WNW 15 19 8 10 1018.0 1018.0 2.0
27/08:06pm 12.2 10.1 11.3 94 0.5 WNW 13 22 7 12 1017.9 1017.9 2.0
27/08:04pm 12.2 10.1 11.3 94 0.5 WNW 13 22 7 12 1017.9 1017.9 2.0
27/08:00pm 12.1 10.0 11.2 94 0.5 WNW 13 15 7 8 1017.9 1017.9 1.8
27/07:57pm 12.1 10.0 11.0 93 0.6 WNW 13 15 7 8 1017.8 1017.8 1.8
27/07:47pm 12.4 10.8 11.5 94 0.5 WNW 11 13 6 7 1017.8 1017.8 1.8
27/07:41pm 12.3 10.6 11.2 93 0.6 NW 11 15 6 8 1017.7 1017.7 1.6
27/07:30pm 12.2 10.1 11.1 93 0.6 NW 13 17 7 9 1017.6 1017.6 1.4
27/07:00pm 12.5 10.5 11.4 93 0.6 NW 13 17 7 9 1017.4 1017.4 1.4
27/06:40pm 12.6 10.5 11.2 91 0.7 WNW 13 19 7 10 1017.3 1017.3 0.6
27/06:30pm 12.4 9.4 10.8 90 0.8 NW 17 20 9 11 1017.1 1017.1 0.0
27/06:29pm 12.4 9.4 10.8 90 0.8 NW 17 20 9 11 1017.1 1017.1 0.0
27/06:00pm 12.6 10.5 11.0 90 0.8 NNW 13 19 7 10 1016.9 1016.9 0.0
27/05:58pm 12.6 10.5 11.0 90 0.8 NNW 13 19 7 10 1016.9 1016.9 0.0
27/05:30pm 12.9 10.4 11.1 89 0.9 NNW 15 20 8 11 1016.6 1016.6 0.0
27/05:24pm 12.9 10.4 11.0 88 1.0 NNW 15 20 8 11 1016.5 1016.5 0.0
27/05:00pm 13.2 10.7 11.1 87 1.1 NW 15 22 8 12 1016.4 1016.4 0.0
27/04:43pm 13.5 10.1 11.2 86 1.2 NNW 20 32 11 17 1016.2 1016.2 0.0
27/04:39pm 13.5 10.3 11.2 86 1.2 NNW 19 32 10 17 1016.2 1016.2 0.0
27/04:30pm 13.5 10.3 11.2 86 1.2 NNW 19 24 10 13 1016.2 1016.2 0.0
27/04:25pm 13.5 10.3 11.2 86 1.2 NNW 19 28 10 15 1016.2 1016.2 0.0
27/04:00pm 13.9 10.3 10.7 81 1.7 NNW 20 32 11 17 1016.1 1016.1 0.0
27/03:30pm 14.3 11.0 10.9 80 1.8 NNW 19 32 10 17 1015.8 1015.8 0.0
27/03:00pm 14.3 11.0 10.9 80 1.8 NNW 19 28 10 15 1015.8 1015.8 0.0
27/02:30pm 14.9 10.5 10.3 74 2.4 NNW 24 32 13 17 1015.9 1015.9 0.0
27/02:00pm 15.1 11.5 10.5 74 2.4 NW 20 32 11 17 1015.9 1015.9 0.0
27/01:30pm 15.2 11.4 9.8 70 2.8 NNW 20 28 11 15 1016.0 1016.0 0.0
27/01:00pm 15.9 11.2 9.3 65 3.4 NNW 24 35 13 19 1016.0 1016.0 0.0
27/12:30pm 15.3 10.4 8.5 64 3.5 NNW 24 35 13 19 1016.2 1016.2 0.0
27/12:00pm 15.6 10.8 8.8 64 3.5 NNW 24 35 13 19 1016.7 1016.7 0.0
27/11:30am 14.9 9.8 7.7 62 3.6 NNW 24 35 13 19 1017.0 1017.0 0.0
27/11:00am 14.8 10.4 7.6 62 3.6 NNW 20 32 11 17 1017.3 1017.3 0.0
27/10:30am 13.5 8.5 6.6 63 3.3 NNW 22 35 12 19 1017.5 1017.5 0.0
27/10:00am 13.2 9.1 6.1 62 3.4 N 17 26 9 14 1017.4 1017.4 0.0
27/09:30am 12.4 8.2 5.8 64 3.1 N 17 24 9 13 1017.6 1017.6 0.0
27/09:00am 10.7 7.2 5.5 70 2.4 N 13 19 7 10 1017.7 1017.7 0.0
27/08:30am 11.0 6.7 5.1 67 2.7 N 17 24 9 13 1017.6 1017.6 0.0
27/08:00am 10.8 6.5 5.1 68 2.6 N 17 20 9 11 1017.5 1017.5 0.0
27/07:30am 10.8 7.2 5.1 68 2.6 N 13 24 7 13 1017.3 1017.3 0.0
27/07:00am 10.2 7.0 5.0 70 2.4 N 11 15 6 8 1017.1 1017.1 0.0
27/06:30am 10.5 6.5 5.1 69 2.5 N 15 20 8 11 1016.8 1016.8 0.0
27/06:00am 10.8 6.5 5.1 68 2.6 N 17 26 9 14 1016.4 1016.4 0.0
27/05:30am 10.9 7.3 5.2 68 2.6 N 13 20 7 11 1016.6 1016.6 0.0
27/05:00am 10.9 7.3 5.2 68 2.6 N 13 19 7 10 1016.8 1016.8 0.0
27/04:30am 10.9 7.8 5.4 69 2.5 N 11 15 6 8 1017.2 1017.2 0.0
27/04:00am 11.3 7.8 5.4 67 2.7 N 13 20 7 11 1017.3 1017.3 0.0
27/03:30am 10.7 7.3 5.7 71 2.3 N 13 19 7 10 1017.4 1017.4 0.0
27/03:00am 10.1 7.4 5.7 74 2.0 NNE 9 13 5 7 1017.5 1017.5 0.0
27/02:30am 10.1 7.4 5.7 74 2.0 NNE 9 13 5 7 1017.7 1017.7 0.0
27/02:00am 10.1 7.0 5.7 74 2.0 NNE 11 13 6 7 1017.7 1017.7 0.0
27/01:30am 9.9 6.9 6.1 77 1.8 NNE 11 17 6 9 1018.0 1018.0 0.0
27/01:00am 9.6 7.0 6.1 79 1.6 NNE 9 13 5 7 1018.1 1018.1 0.0
27/12:30am 9.3 6.7 6.2 81 1.4 NNE 9 11 5 6 1018.3 1018.3 0.0
27/12:00am 9.0 6.4 6.1 82 1.3 N 9 13 5 7 1018.5 1018.5 0.0
 
Date/Time
EST
Temp
°C
App
Temp
°C
Dew
Point
°C
Rel
Hum
%
Delta-T
°C
Wind Press
QNH
hPa
Press
MSL
hPa
Rain since
9am
mm
Dir  Spd
km/h
Gust
km/h
Spd
kts
Gust
kts
26/11:30pm 8.3 5.7 6.1 86 1.0 NNE 9 9 5 5 1018.7 1018.7 0.0
26/11:00pm 7.8 5.5 5.8 87 0.9 NNE 7 9 4 5 1018.8 1018.8 0.0
26/10:30pm 7.6 6.5 5.2 85 1.1 CALM 0 0 0 0 1019.0 1019.0 0.0
26/10:00pm 9.3 7.2 6.0 80 1.5 NNE 6 9 3 5 1019.0 1019.0 0.0
26/09:30pm 9.7 7.5 6.1 78 1.7 NNE 7 11 4 6 1019.0 1019.0 0.0
26/09:00pm 9.9 7.3 6.3 78 1.7 NE 9 13 5 7 1018.8 1018.8 0.0
26/08:30pm 10.3 7.7 6.3 76 1.9 NNE 9 15 5 8 1018.7 1018.7 0.0
26/08:00pm 10.4 7.8 6.2 75 2.0 NNE 9 15 5 8 1018.6 1018.6 0.0
26/07:30pm 11.1 8.2 6.3 72 2.3 NE 11 15 6 8 1018.2 1018.2 0.0
26/07:00pm 11.5 7.8 6.4 71 2.4 NE 15 20 8 11 1017.9 1017.9 0.0
26/06:30pm 11.6 7.6 6.5 71 2.4 NE 17 24 9 13 1018.1 1018.1 0.0
26/06:00pm 11.0 8.4 6.0 71 2.3 NE 9 13 5 7 1018.4 1018.4 0.0
26/05:30pm 11.7 9.1 6.0 68 2.7 NE 9 13 5 7 1018.5 1018.5 0.0
26/05:00pm 12.7 9.4 6.3 65 3.0 NNE 13 19 7 10 1018.7 1018.7 0.0
26/04:30pm 13.8 10.2 6.7 62 3.4 NNE 15 20 8 11 1018.6 1018.6 0.0
26/04:00pm 14.6 10.5 6.2 57 4.0 NNE 17 26 9 14 1018.8 1018.8 0.0
26/03:30pm 14.8 10.3 5.9 55 4.3 N 19 30 10 16 1019.1 1019.1 0.0
26/03:00pm 15.4 11.5 6.9 57 4.2 N 17 28 9 15 1019.2 1019.2 0.0
26/02:30pm 15.6 11.3 6.9 56 4.3 NNE 19 28 10 15 1019.5 1019.5 0.0
26/02:00pm 15.3 11.5 7.6 60 3.8 NNE 17 24 9 13 1020.0 1020.0 0.0
26/01:30pm 14.8 10.4 7.6 62 3.6 NNE 20 28 11 15 1020.3 1020.3 0.0
26/01:00pm 14.2 10.4 7.5 64 3.3 N 17 26 9 14 1020.7 1020.8 0.0
26/12:30pm 14.1 10.3 7.6 65 3.2 N 17 24 9 13 1021.1 1021.2 0.0
26/12:00pm 12.9 8.6 7.1 68 2.8 N 19 28 10 15 1021.7 1021.8 0.0
26/11:30am 12.3 8.1 7.4 72 2.4 NNE 19 30 10 16 1022.3 1022.4 0.0
26/11:00am 10.0 6.4 6.7 80 1.5 N 15 20 8 11 1022.8 1022.9 0.0
26/10:30am 9.4 5.7 6.5 82 1.4 N 15 20 8 11 1023.2 1023.3 0.0
26/10:00am 8.1 5.2 6.6 90 0.7 N 11 17 6 9 1023.3 1023.4 0.0
26/09:30am 6.9 4.7 6.2 95 0.3 NNE 7 11 4 6 1023.4 1023.5 0.0
26/09:00am 6.0 3.6 5.4 96 0.3 NNE 7 11 4 6 1023.4 1023.5 0.4
26/08:34am 4.2 1.1 3.6 96 0.2 N 9 9 5 5 1023.3 1023.4 0.4
26/08:30am 3.9 0.7 3.3 96 0.2 N 9 9 5 5 1023.2 1023.3 0.4
26/08:21am 3.2 0.5 2.5 95 0.3 NNE 6 9 3 5 1023.3 1023.4 0.4
26/08:00am 3.9 1.3 3.3 96 0.2 ENE 6 7 3 4 1023.2 1023.3 0.4
26/07:30am 4.3 1.2 3.7 96 0.2 ENE 9 11 5 6 1023.1 1023.2 0.2
26/07:03am 4.2 1.5 3.6 96 0.2 ENE 7 11 4 6 1023.1 1023.2 0.2
26/07:00am 4.3 1.6 3.7 96 0.2 ENE 7 11 4 6 1023.1 1023.2 0.2
26/06:30am 2.9 0.9 2.2 95 0.3 NE 2 6 1 3 1023.0 1023.1 0.2
26/06:00am 3.6 1.3 2.9 95 0.3 NE 4 7 2 4 1022.9 1023.0 0.2
26/05:30am 3.5 0.8 2.6 94 0.4 NNW 6 7 3 4 1023.0 1023.1 0.2
26/05:18am 3.9 1.3 3.2 95 0.3 N 6 9 3 5 1023.1 1023.2 0.2
26/05:00am 4.7 1.7 4.0 95 0.3 N 9 9 5 5 1023.1 1023.2 0.2
26/04:30am 5.2 2.3 4.5 95 0.3 N 9 15 5 8 1023.2 1023.3 0.2
26/04:00am 4.9 1.9 4.0 94 0.4 NNE 9 11 5 6 1023.3 1023.4 0.2
26/03:30am 4.8 2.1 3.8 93 0.4 N 7 9 4 5 1023.5 1023.6 0.2
26/03:00am 5.9 3.0 4.9 93 0.4 ENE 9 13 5 7 1023.2 1023.3 0.2
26/02:30am 5.3 2.7 4.1 92 0.5 ENE 7 9 4 5 1023.2 1023.3 0.2
26/02:00am 5.9 3.9 4.5 91 0.6 NE 4 9 2 5 1023.6 1023.7 0.2
26/01:30am 6.3 3.4 4.6 89 0.7 NNW 9 13 5 7 1023.7 1023.8 0.2
26/01:00am 7.7 4.7 5.8 88 0.9 ENE 11 17 6 9 1023.1 1023.2 0.2
26/12:30am 7.8 3.6 5.8 87 0.9 ENE 17 24 9 13 1023.1 1023.2 0.2
26/12:00am 8.1 3.6 6.1 87 0.9 ENE 19 28 10 15 1023.0 1023.1 0.2
 
Date/Time
EST
Temp
°C
App
Temp
°C
Dew
Point
°C
Rel
Hum
%
Delta-T
°C
Wind Press
QNH
hPa
Press
MSL
hPa
Rain since
9am
mm
Dir  Spd
km/h
Gust
km/h
Spd
kts
Gust
kts
25/11:30pm 8.8 5.1 6.4 85 1.1 ENE 15 28 8 15 1023.2 1023.3 0.2
25/11:00pm 9.0 4.6 6.6 85 1.1 ENE 19 28 10 15 1023.3 1023.4 0.0
25/10:30pm 8.8 4.8 6.8 87 0.9 ENE 17 26 9 14 1023.7 1023.8 0.0
25/10:00pm 9.1 5.3 7.7 91 0.7 ENE 17 26 9 14 1023.9 1024.0 0.0
25/09:30pm 9.2 6.3 8.1 93 0.5 ENE 13 19 7 10 1024.3 1024.4 0.0
25/09:00pm 9.1 6.2 8.2 94 0.4 ENE 13 19 7 10 1024.4 1024.5 0.0
25/08:30pm 8.9 6.4 8.1 95 0.4 ENE 11 17 6 9 1024.7 1024.8 0.0
25/08:01pm 5.9 4.7 4.7 92 0.5 CALM 0 7 0 4 1024.7 1024.8 0.0
25/08:00pm 6.0 4.8 4.8 92 0.5 CALM 0 0 0 0 1024.7 1024.8 0.0
25/07:30pm 5.9 4.7 4.5 91 0.6 CALM 0 0 0 0 1024.9 1025.0 0.0
25/07:28pm 6.1 4.9 4.7 91 0.6 CALM 0 0 0 0 1024.9 1025.0 0.0
25/07:00pm 6.6 5.1 5.1 90 0.7 ESE 2 6 1 3 1024.7 1024.8 0.0
25/06:30pm 8.6 6.7 6.9 89 0.8 E 6 9 3 5 1024.5 1024.6 0.0
25/06:00pm 8.6 6.1 6.6 87 0.9 E 9 11 5 6 1024.2 1024.3 0.0
25/05:30pm 9.7 7.3 7.1 84 1.2 E 9 11 5 6 1024.3 1024.4 0.0
25/05:00pm 11.6 9.4 7.9 78 1.8 E 9 13 5 7 1024.4 1024.5 0.0
25/04:30pm 12.7 10.5 8.0 73 2.3 E 9 15 5 8 1024.6 1024.7 0.0
25/04:00pm 13.1 10.6 8.0 71 2.5 E 11 15 6 8 1024.6 1024.7 0.0
25/03:30pm 13.3 11.1 8.0 70 2.6 ESE 9 15 5 8 1024.9 1025.0 0.0
25/03:00pm 13.2 10.6 7.9 70 2.6 ESE 11 15 6 8 1025.0 1025.1 0.0
25/02:30pm 13.4 10.8 7.8 69 2.8 ESE 11 17 6 9 1025.0 1025.1 0.0
25/02:00pm 13.4 11.0 8.5 72 2.4 E 11 17 6 9 1025.2 1025.2 0.0
25/01:30pm 12.8 9.8 7.9 72 2.4 ESE 13 17 7 9 1025.3 1025.3 0.0
25/01:00pm 12.9 9.9 7.6 70 2.6 E 13 17 7 9 1025.5 1025.5 0.0
25/12:30pm 13.1 9.7 7.8 70 2.6 ENE 15 24 8 13 1025.5 1025.5 0.0
25/12:00pm 12.7 9.0 7.8 72 2.4 E 17 22 9 12 1025.8 1025.8 0.0
25/11:30am 12.5 8.8 7.8 73 2.3 E 17 22 9 12 1026.0 1026.0 0.0
25/11:00am 12.2 8.4 7.5 73 2.3 E 17 22 9 12 1026.2 1026.2 0.0
25/10:30am 11.9 8.1 7.6 75 2.1 E 17 22 9 12 1026.2 1026.2 0.0
25/10:00am 11.0 7.6 7.5 79 1.7 E 15 22 8 12 1026.2 1026.2 0.0
25/09:30am 10.1 6.9 7.0 81 1.5 ENE 13 20 7 11 1026.0 1026.0 0.0
25/09:00am 8.9 5.7 6.9 87 0.9 ENE 13 20 7 11 1025.6 1025.6 3.2
25/08:30am 7.6 4.3 6.5 93 0.5 ENE 13 22 7 12 1025.2 1025.2 3.2
25/08:00am 6.3 3.2 5.6 95 0.3 ENE 11 15 6 8 1024.9 1025.0 3.2
25/07:30am 4.9 1.9 4.2 95 0.3 ENE 9 11 5 6 1025.2 1025.2 3.2
25/07:00am 4.5 3.1 3.6 94 0.4 CALM 0 0 0 0 1025.2 1025.2 3.2
25/06:30am 5.9 3.4 4.9 93 0.4 NE 7 9 4 5 1024.5 1024.6 3.2
25/06:00am 6.6 3.9 5.6 93 0.4 NE 9 11 5 6 1024.5 1024.6 3.2
25/05:30am 6.5 4.1 5.3 92 0.5 NE 7 11 4 6 1024.4 1024.5 3.2
25/05:00am 7.7 5.2 6.5 92 0.5 NE 9 13 5 7 1024.3 1024.4 3.2
25/04:30am 8.2 6.2 7.1 93 0.5 NE 7 9 4 5 1024.8 1024.9 3.0
25/04:00am 9.1 6.6 8.3 95 0.4 NE 11 15 6 8 1024.4 1024.5 3.0
25/03:30am 9.9 8.1 9.3 96 0.3 ENE 9 11 5 6 1025.0 1025.1 3.0
25/03:00am 10.0 7.8 9.4 96 0.3 E 11 19 6 10 1025.6 1025.6 3.0
25/02:42am 10.2 9.0 9.6 96 0.3 ESE 6 9 3 5 1026.0 1026.0 3.0
25/02:40am 10.2 8.8 9.6 96 0.3 ESE 7 11 4 6 1026.0 1026.0 3.0

Other formats

Comma delimited format used in spreadsheet applications
http://www.bom.gov.au/fwo/IDV60801/IDV60801.94828.axf

JavaScript Object Notation format (JSON) in row-major order
http://www.bom.gov.au/fwo/IDV60801/IDV60801.94828.json

Data quality

Most of these data are generated automatically and are frequently updated. Quality checks on data are not normally performed. It is possible for incorrect values to appear. Refer to information at About Latest Weather Observations and please check the disclaimer before using these data.